Time;durP1;ratioP1;P1;durP2;ratioP2;P2;SDS_P1;SDS_P2;PMS_P1;PMS_P2;Temp;Humidity;BMP_temperature;BMP_pressure;BME280_temperature;BME280_humidity;BME280_pressure;Samples;Min_cycle;Max_cycle;Signal;HPM_P1;HPM_P2
2021/03/07 00:00:55;;;;;;;;;;;16.70;53.30;;;;;;4904716;29;20042;-89
2021/03/07 00:03:21;;;;;;;;;;;16.70;53.40;;;;;;4902213;29;19927;-91
2021/03/07 00:05:47;;;;;;;;;;;16.70;53.30;;;;;;4881078;29;19934;-89
2021/03/07 00:08:14;;;;;;;;;;;16.70;53.40;;;;;;4899954;29;19971;-87
2021/03/07 00:10:41;;;;;;;;;;;16.70;53.40;;;;;;4907865;29;19927;-87
2021/03/07 00:13:10;;;;;;;;;;;16.70;53.40;;;;;;4899947;29;19928;-88
2021/03/07 00:15:37;;;;;;;;;;;16.70;53.40;;;;;;4902252;29;19934;-86
2021/03/07 00:18:03;;;;;;;;;;;16.70;53.50;;;;;;4899291;29;20021;-87
2021/03/07 00:20:30;;;;;;;;;;;16.70;53.50;;;;;;4906280;29;19931;-86
2021/03/07 00:22:56;;;;;;;;;;;16.70;53.50;;;;;;4902494;29;19931;-86
2021/03/07 00:25:23;;;;;;;;;;;16.70;53.60;;;;;;4903063;29;19927;-86
2021/03/07 00:27:50;;;;;;;;;;;16.70;54.10;;;;;;4891266;29;19927;-86
2021/03/07 00:30:17;;;;;;;;;;;16.70;53.60;;;;;;4911062;29;19922;-86
2021/03/07 00:32:43;;;;;;;;;;;16.70;53.60;;;;;;4894857;29;19927;-86
2021/03/07 00:35:11;;;;;;;;;;;16.70;53.60;;;;;;4888791;29;19955;-87
2021/03/07 00:37:37;;;;;;;;;;;16.70;53.60;;;;;;4904017;29;19928;-86
2021/03/07 00:40:05;;;;;;;;;;;16.60;53.60;;;;;;4902456;29;20572;-86
2021/03/07 00:42:31;;;;;;;;;;;16.60;53.60;;;;;;4903149;29;19928;-86
2021/03/07 00:44:59;;;;;;;;;;;16.70;53.70;;;;;;4897019;29;19939;-86
2021/03/07 00:47:26;;;;;;;;;;;16.60;53.60;;;;;;4906033;29;19927;-86
2021/03/07 00:49:52;;;;;;;;;;;16.60;53.70;;;;;;4899475;29;19961;-86
2021/03/07 00:52:19;;;;;;;;;;;16.60;53.70;;;;;;4907803;29;19923;-86
2021/03/07 00:54:45;;;;;;;;;;;16.60;53.70;;;;;;4905759;29;20013;-86
2021/03/07 00:57:11;;;;;;;;;;;16.60;53.70;;;;;;4907436;29;20403;-87
2021/03/07 00:59:37;;;;;;;;;;;16.60;53.70;;;;;;4886832;29;19927;-87
2021/03/07 01:02:03;;;;;;;;;;;16.60;53.70;;;;;;4925290;29;19935;-86
2021/03/07 01:04:30;;;;;;;;;;;16.60;53.70;;;;;;4897348;29;20320;-86
2021/03/07 01:06:56;;;;;;;;;;;16.60;53.70;;;;;;4900789;29;20056;-87
2021/03/07 01:09:22;;;;;;;;;;;16.60;53.70;;;;;;4902191;29;19945;-87
2021/03/07 01:12:02;;;;;;;;;;;16.60;53.70;;;;;;4909452;29;20025;-87
2021/03/07 01:14:28;;;;;;;;;;;16.60;53.70;;;;;;4895781;29;19942;-89
2021/03/07 01:16:54;;;;;;;;;;;16.60;53.70;;;;;;4904117;29;19915;-87
2021/03/07 01:19:21;;;;;;;;;;;16.60;53.70;;;;;;4905945;29;19935;-87
2021/03/07 01:21:47;;;;;;;;;;;16.50;53.70;;;;;;4898790;29;19927;-88
2021/03/07 01:24:16;;;;;;;;;;;16.60;53.70;;;;;;4907188;29;19974;-88
2021/03/07 01:26:42;;;;;;;;;;;16.60;53.70;;;;;;4886325;29;20464;-89
2021/03/07 01:29:09;;;;;;;;;;;16.50;53.60;;;;;;4896632;29;20545;-89
2021/03/07 01:31:35;;;;;;;;;;;16.60;53.70;;;;;;4907504;29;19931;-89
2021/03/07 01:34:02;;;;;;;;;;;16.50;53.60;;;;;;4902163;29;20372;-88
2021/03/07 01:36:28;;;;;;;;;;;16.50;53.60;;;;;;4903272;29;19935;-89
2021/03/07 01:38:55;;;;;;;;;;;16.50;53.60;;;;;;4904503;29;19931;-88
2021/03/07 01:41:24;;;;;;;;;;;16.50;53.60;;;;;;4903978;29;19979;-87
2021/03/07 01:43:50;;;;;;;;;;;16.50;53.60;;;;;;4908479;29;19927;-88
2021/03/07 01:46:17;;;;;;;;;;;16.50;53.70;;;;;;4894455;29;19931;-87
2021/03/07 01:48:44;;;;;;;;;;;16.50;53.60;;;;;;4892096;29;19927;-87
2021/03/07 01:51:12;;;;;;;;;;;16.50;53.60;;;;;;4903173;29;20018;-87
2021/03/07 01:53:41;;;;;;;;;;;16.50;53.70;;;;;;4906238;29;19935;-88
2021/03/07 01:56:09;;;;;;;;;;;16.50;54.30;;;;;;4899390;29;20002;-84
2021/03/07 01:58:36;;;;;;;;;;;16.50;53.70;;;;;;4905801;29;19930;-85
2021/03/07 02:01:04;;;;;;;;;;;16.50;53.60;;;;;;4909288;29;21069;-86
2021/03/07 02:03:31;;;;;;;;;;;16.50;54.30;;;;;;4894903;29;19931;-86
2021/03/07 02:05:57;;;;;;;;;;;16.50;53.70;;;;;;4907653;29;19931;-87
2021/03/07 02:08:23;;;;;;;;;;;16.50;53.70;;;;;;4900246;29;19943;-87
2021/03/07 02:10:59;;;;;;;;;;;16.40;53.60;;;;;;4907403;29;19927;-87
2021/03/07 02:13:31;;;;;;;;;;;16.50;53.70;;;;;;4903853;29;19927;-86
2021/03/07 02:15:58;;;;;;;;;;;16.50;53.70;;;;;;4924549;29;19974;-87
2021/03/07 02:18:26;;;;;;;;;;;16.40;53.60;;;;;;4905256;29;19928;-87
2021/03/07 02:20:58;;;;;;;;;;;16.40;53.60;;;;;;4906919;29;19939;-87
2021/03/07 02:23:26;;;;;;;;;;;16.40;53.60;;;;;;4897648;29;19927;-86
2021/03/07 02:25:52;;;;;;;;;;;16.40;53.60;;;;;;4908395;29;19923;-86
2021/03/07 02:28:20;;;;;;;;;;;16.40;53.70;;;;;;4889698;29;19927;-86
2021/03/07 02:30:46;;;;;;;;;;;16.40;53.70;;;;;;4907433;29;19927;-86
2021/03/07 02:33:21;;;;;;;;;;;16.40;53.70;;;;;;4897148;29;19954;-86
2021/03/07 02:35:57;;;;;;;;;;;16.40;53.70;;;;;;4904703;29;19931;-87
2021/03/07 02:38:35;;;;;;;;;;;16.40;53.70;;;;;;4896167;29;19934;-88
2021/03/07 02:41:01;;;;;;;;;;;16.40;53.70;;;;;;4895745;29;19934;-87
2021/03/07 02:43:29;;;;;;;;;;;16.40;53.70;;;;;;4902903;29;20383;-87
2021/03/07 02:45:57;;;;;;;;;;;16.40;53.70;;;;;;4905542;29;19934;-87
2021/03/07 02:48:26;;;;;;;;;;;16.40;53.70;;;;;;4893528;29;19942;-87
2021/03/07 02:50:56;;;;;;;;;;;16.40;53.70;;;;;;4909440;29;20928;-88
2021/03/07 02:53:23;;;;;;;;;;;16.40;53.70;;;;;;4905128;29;19958;-88
2021/03/07 02:56:00;;;;;;;;;;;16.40;53.70;;;;;;4904828;29;19931;-88
2021/03/07 02:58:27;;;;;;;;;;;16.30;53.60;;;;;;4913820;29;19935;-88
2021/03/07 03:00:55;;;;;;;;;;;16.30;53.60;;;;;;4901746;29;19922;-88
2021/03/07 03:03:25;;;;;;;;;;;16.40;53.70;;;;;;4905081;29;19938;-88
2021/03/07 03:05:52;;;;;;;;;;;16.30;53.70;;;;;;4902939;29;19928;-87
2021/03/07 03:08:19;;;;;;;;;;;16.30;53.60;;;;;;4908080;29;19927;-87
2021/03/07 03:10:47;;;;;;;;;;;16.30;53.70;;;;;;4905588;29;19950;-86
2021/03/07 03:13:27;;;;;;;;;;;16.30;53.70;;;;;;4908603;29;20027;-86
2021/03/07 03:15:59;;;;;;;;;;;16.30;53.70;;;;;;4894945;29;19931;-86
2021/03/07 03:18:30;;;;;;;;;;;16.30;53.70;;;;;;4906708;29;19966;-86
2021/03/07 03:21:00;;;;;;;;;;;16.30;53.60;;;;;;4903949;29;19934;-87
2021/03/07 03:23:27;;;;;;;;;;;16.40;53.70;;;;;;4889259;29;19935;-86
2021/03/07 03:25:54;;;;;;;;;;;16.30;53.70;;;;;;4906645;29;19931;-87
2021/03/07 03:28:22;;;;;;;;;;;16.30;53.70;;;;;;4909348;29;19931;-87
2021/03/07 03:30:51;;;;;;;;;;;16.30;53.70;;;;;;4909443;29;19943;-86
2021/03/07 03:33:18;;;;;;;;;;;16.30;53.70;;;;;;4909756;29;20369;-87
2021/03/07 03:35:45;;;;;;;;;;;16.30;53.70;;;;;;4904728;29;20014;-87
2021/03/07 03:38:12;;;;;;;;;;;16.30;53.70;;;;;;4906895;29;19931;-87
2021/03/07 03:40:39;;;;;;;;;;;16.30;53.70;;;;;;4907776;29;19939;-86
2021/03/07 03:43:09;;;;;;;;;;;16.30;53.60;;;;;;4912679;29;20368;-88
2021/03/07 03:45:38;;;;;;;;;;;16.20;53.60;;;;;;4891814;29;21399;-87
2021/03/07 03:48:06;;;;;;;;;;;16.20;53.60;;;;;;4906070;29;20283;-87
2021/03/07 03:50:36;;;;;;;;;;;16.30;53.60;;;;;;4905620;29;19935;-87
2021/03/07 03:53:03;;;;;;;;;;;16.30;53.70;;;;;;4915003;29;20404;-89
2021/03/07 03:55:29;;;;;;;;;;;16.20;53.60;;;;;;4928150;29;19939;-87
2021/03/07 03:57:57;;;;;;;;;;;16.20;53.50;;;;;;4907352;29;19927;-88
2021/03/07 04:00:26;;;;;;;;;;;16.20;53.60;;;;;;4909972;29;19938;-87
2021/03/07 04:02:55;;;;;;;;;;;16.20;53.50;;;;;;4899476;29;19935;-88
2021/03/07 04:05:24;;;;;;;;;;;16.30;53.60;;;;;;4905708;29;20027;-88
2021/03/07 04:07:50;;;;;;;;;;;16.20;53.60;;;;;;4904708;29;19927;-88
2021/03/07 04:10:17;;;;;;;;;;;16.20;53.50;;;;;;4908651;29;19940;-88
2021/03/07 04:12:47;;;;;;;;;;;16.20;53.60;;;;;;4907185;29;19934;-88
2021/03/07 04:15:15;;;;;;;;;;;16.20;53.50;;;;;;4909962;29;19978;-87
2021/03/07 04:17:46;;;;;;;;;;;16.20;53.50;;;;;;4902485;29;19949;-87
2021/03/07 04:20:14;;;;;;;;;;;16.20;53.50;;;;;;4911256;29;19927;-87
2021/03/07 04:22:41;;;;;;;;;;;16.20;53.60;;;;;;4917745;29;19927;-87
2021/03/07 04:25:08;;;;;;;;;;;16.20;53.50;;;;;;4909674;29;19928;-86
2021/03/07 04:27:35;;;;;;;;;;;16.20;53.60;;;;;;4899701;29;19927;-86
2021/03/07 04:30:04;;;;;;;;;;;16.20;53.50;;;;;;4907873;29;19942;-86
2021/03/07 04:32:31;;;;;;;;;;;16.20;53.60;;;;;;4901869;29;19927;-86
2021/03/07 04:34:58;;;;;;;;;;;16.20;53.50;;;;;;4905409;29;19927;-86
2021/03/07 04:37:24;;;;;;;;;;;16.20;53.60;;;;;;4901174;29;20435;-87
2021/03/07 04:39:51;;;;;;;;;;;16.10;53.50;;;;;;4891732;29;19927;-85
2021/03/07 04:42:17;;;;;;;;;;;16.20;53.50;;;;;;4909867;29;19935;-86
2021/03/07 04:44:43;;;;;;;;;;;16.10;53.50;;;;;;4905824;29;19927;-85
2021/03/07 04:47:09;;;;;;;;;;;16.10;53.50;;;;;;4905663;29;20380;-86
2021/03/07 04:49:36;;;;;;;;;;;16.10;53.50;;;;;;4904989;29;19927;-88
2021/03/07 04:52:02;;;;;;;;;;;16.10;53.50;;;;;;4905490;29;19935;-87
2021/03/07 04:54:28;;;;;;;;;;;16.10;53.50;;;;;;4907041;29;19935;-87
2021/03/07 04:56:57;;;;;;;;;;;16.10;53.60;;;;;;4903372;29;19931;-88
2021/03/07 04:59:25;;;;;;;;;;;16.10;54.20;;;;;;4904315;29;21536;-87
2021/03/07 05:01:51;;;;;;;;;;;16.10;53.50;;;;;;4901345;29;19977;-88
2021/03/07 05:04:21;;;;;;;;;;;16.10;53.50;;;;;;4905549;29;19923;-88
2021/03/07 05:06:47;;;;;;;;;;;16.10;53.50;;;;;;4899878;29;19927;-87
2021/03/07 05:09:14;;;;;;;;;;;16.10;53.50;;;;;;4896282;29;19935;-86
2021/03/07 05:11:40;;;;;;;;;;;16.10;53.40;;;;;;4902985;29;19935;-87
2021/03/07 05:14:06;;;;;;;;;;;16.10;53.40;;;;;;4895964;29;19934;-86
2021/03/07 05:16:33;;;;;;;;;;;16.00;53.40;;;;;;4900138;29;20006;-87
2021/03/07 05:19:00;;;;;;;;;;;16.10;53.40;;;;;;4903000;29;19935;-87
2021/03/07 05:21:26;;;;;;;;;;;16.00;53.40;;;;;;4901059;29;19927;-87
2021/03/07 05:23:54;;;;;;;;;;;16.10;53.50;;;;;;4900862;29;20428;-86
2021/03/07 05:26:22;;;;;;;;;;;16.10;53.40;;;;;;4895387;29;19991;-87
2021/03/07 05:28:48;;;;;;;;;;;16.00;53.40;;;;;;4909670;29;19986;-86
2021/03/07 05:31:15;;;;;;;;;;;16.00;53.40;;;;;;4885100;29;19927;-86
2021/03/07 05:33:41;;;;;;;;;;;16.00;53.40;;;;;;4907383;29;19935;-87
2021/03/07 05:36:08;;;;;;;;;;;16.00;53.40;;;;;;4906002;29;19928;-87
2021/03/07 05:38:34;;;;;;;;;;;16.00;53.40;;;;;;4900094;29;20395;-85
2021/03/07 05:41:00;;;;;;;;;;;16.00;53.40;;;;;;4896126;29;20042;-87
2021/03/07 05:43:26;;;;;;;;;;;16.10;53.50;;;;;;4910143;29;19927;-86
2021/03/07 05:45:53;;;;;;;;;;;16.00;53.40;;;;;;4902433;29;19923;-87
2021/03/07 05:48:20;;;;;;;;;;;16.00;53.30;;;;;;4911055;29;20391;-86
2021/03/07 05:50:46;;;;;;;;;;;16.00;53.40;;;;;;4900485;29;19962;-85
2021/03/07 05:53:13;;;;;;;;;;;16.00;53.40;;;;;;4908669;29;20472;-86
2021/03/07 05:55:39;;;;;;;;;;;16.00;53.30;;;;;;4908729;29;19927;-85
2021/03/07 05:58:06;;;;;;;;;;;16.00;53.40;;;;;;4910645;29;19941;-83
2021/03/07 06:00:33;;;;;;;;;;;16.00;53.30;;;;;;4914698;29;19918;-84
2021/03/07 06:03:05;;;;;;;;;;;16.00;53.30;;;;;;4898840;29;19993;-86
2021/03/07 06:05:33;;;;;;;;;;;16.00;53.40;;;;;;4906456;29;19918;-86
2021/03/07 06:08:07;;;;;;;;;;;16.00;53.30;;;;;;4907440;29;20397;-87
2021/03/07 06:10:40;;;;;;;;;;;16.00;53.30;;;;;;4913552;29;19950;-86
2021/03/07 06:13:11;;;;;;;;;;;15.90;53.30;;;;;;4897605;29;21180;-86
2021/03/07 06:16:05;;;;;;;;;;;16.00;53.30;;;;;;4895838;29;19934;-86
2021/03/07 06:18:38;;;;;;;;;;;16.00;53.30;;;;;;4905731;29;19927;-87
2021/03/07 06:21:25;;;;;;;;;;;15.90;53.30;;;;;;4902491;29;20628;-87
2021/03/07 06:23:51;;;;;;;;;;;15.90;53.20;;;;;;4891457;29;19935;-86
2021/03/07 06:26:17;;;;;;;;;;;16.00;53.30;;;;;;4903726;29;19931;-87
2021/03/07 06:28:43;;;;;;;;;;;15.90;53.30;;;;;;4898353;29;20474;-86
2021/03/07 06:31:29;;;;;;;;;;;15.90;53.20;;;;;;4899820;29;19961;-87
2021/03/07 06:33:57;;;;;;;;;;;15.90;53.20;;;;;;4902637;29;19947;-86
2021/03/07 06:36:24;;;;;;;;;;;15.90;53.10;;;;;;4902985;29;19915;-86
2021/03/07 06:38:51;;;;;;;;;;;15.90;53.10;;;;;;4902686;29;20030;-84
2021/03/07 06:41:23;;;;;;;;;;;15.90;53.10;;;;;;4903554;29;20447;-83
2021/03/07 06:43:49;;;;;;;;;;;15.90;53.10;;;;;;4905282;29;19960;-82
2021/03/07 06:46:31;;;;;;;;;;;15.90;53.10;;;;;;4908870;29;19931;-83
2021/03/07 06:48:57;;;;;;;;;;;15.90;53.20;;;;;;4902562;29;19927;-83
2021/03/07 06:51:31;;;;;;;;;;;15.90;53.40;;;;;;4918043;29;19926;-82
2021/03/07 06:54:11;;;;;;;;;;;15.90;53.50;;;;;;4904427;29;20823;-83
2021/03/07 06:56:56;;;;;;;;;;;15.90;53.70;;;;;;4906006;29;20561;-83
2021/03/07 06:59:34;;;;;;;;;;;15.90;53.60;;;;;;4889329;29;19927;-84
2021/03/07 07:02:08;;;;;;;;;;;15.90;53.80;;;;;;4895103;29;19935;-84
2021/03/07 07:04:38;;;;;;;;;;;16.00;53.60;;;;;;4902856;29;19950;-84
2021/03/07 07:07:08;;;;;;;;;;;15.90;53.50;;;;;;4900936;29;19927;-84
2021/03/07 07:09:37;;;;;;;;;;;16.00;53.60;;;;;;4903633;29;19927;-84
2021/03/07 07:12:07;;;;;;;;;;;16.00;53.60;;;;;;4898774;29;19927;-84
2021/03/07 07:14:38;;;;;;;;;;;15.90;53.40;;;;;;4904323;29;20186;-84
2021/03/07 07:17:05;;;;;;;;;;;16.00;53.40;;;;;;4908168;29;20423;-84
2021/03/07 07:19:32;;;;;;;;;;;16.00;53.40;;;;;;4895155;29;19927;-84
2021/03/07 07:21:59;;;;;;;;;;;15.90;53.30;;;;;;4913430;29;22232;-84
2021/03/07 07:24:25;;;;;;;;;;;15.90;53.30;;;;;;4906520;29;19927;-86
2021/03/07 07:26:52;;;;;;;;;;;15.90;53.20;;;;;;4910469;29;19927;-85
2021/03/07 07:29:18;;;;;;;;;;;16.00;53.30;;;;;;4903975;29;19927;-84
2021/03/07 07:31:45;;;;;;;;;;;16.00;53.20;;;;;;4910860;29;20044;-84
2021/03/07 07:34:16;;;;;;;;;;;16.00;53.20;;;;;;4912473;29;19931;-84
2021/03/07 07:36:52;;;;;;;;;;;16.00;53.20;;;;;;4899636;29;19973;-84
2021/03/07 07:39:23;;;;;;;;;;;15.90;53.20;;;;;;4915011;29;20345;-84
2021/03/07 07:41:49;;;;;;;;;;;15.90;53.10;;;;;;4905002;29;19982;-84
2021/03/07 07:44:26;;;;;;;;;;;16.00;53.20;;;;;;4907584;29;19927;-85
2021/03/07 07:46:56;;;;;;;;;;;16.00;53.10;;;;;;4892631;29;19927;-85
2021/03/07 07:49:35;;;;;;;;;;;16.00;53.10;;;;;;4925991;29;19977;-85
2021/03/07 07:52:22;;;;;;;;;;;16.00;53.10;;;;;;4905017;29;19931;-85
2021/03/07 07:54:49;;;;;;;;;;;15.90;53.00;;;;;;4896962;29;21783;-89
2021/03/07 07:57:37;;;;;;;;;;;15.90;53.00;;;;;;4905137;29;19927;-86
2021/03/07 08:00:10;;;;;;;;;;;15.90;52.90;;;;;;4905118;29;20304;-86
2021/03/07 08:02:46;;;;;;;;;;;16.00;52.90;;;;;;4900647;29;20589;-87
2021/03/07 08:05:26;;;;;;;;;;;15.90;52.70;;;;;;4900287;29;21589;-87
2021/03/07 08:08:04;;;;;;;;;;;16.00;52.70;;;;;;4901200;29;19935;-87
2021/03/07 08:10:41;;;;;;;;;;;15.90;52.60;;;;;;4907055;29;19954;-87
2021/03/07 08:13:14;;;;;;;;;;;15.90;52.50;;;;;;4877956;29;20567;-85
2021/03/07 08:15:44;;;;;;;;;;;16.00;52.50;;;;;;4925210;29;19931;-87
2021/03/07 08:18:12;;;;;;;;;;;16.00;52.50;;;;;;4900946;29;19931;-88
2021/03/07 08:20:38;;;;;;;;;;;15.90;52.30;;;;;;4905136;29;19937;-89
2021/03/07 08:23:05;;;;;;;;;;;16.00;52.30;;;;;;4901098;29;20496;-89
2021/03/07 08:26:01;;;;;;;;;;;15.90;52.20;;;;;;4905550;29;19915;-89
2021/03/07 08:28:31;;;;;;;;;;;15.90;52.20;;;;;;4879313;29;20401;-88
2021/03/07 08:30:59;;;;;;;;;;;16.00;52.20;;;;;;4907627;29;20691;-87
2021/03/07 08:33:26;;;;;;;;;;;16.00;52.10;;;;;;4897014;29;19931;-89
2021/03/07 08:36:08;;;;;;;;;;;16.00;52.10;;;;;;4905721;29;19935;-88
2021/03/07 08:38:34;;;;;;;;;;;15.90;52.00;;;;;;4898725;29;19939;-87
2021/03/07 08:41:01;;;;;;;;;;;16.00;52.10;;;;;;4907379;29;19935;-87
2021/03/07 08:43:29;;;;;;;;;;;15.90;52.00;;;;;;4917365;29;19937;-87
2021/03/07 08:46:02;;;;;;;;;;;16.00;52.00;;;;;;4904829;29;20451;-88
2021/03/07 08:48:28;;;;;;;;;;;16.00;52.00;;;;;;4900941;29;19937;-87
2021/03/07 08:50:56;;;;;;;;;;;16.00;52.00;;;;;;4911038;29;19938;-86
2021/03/07 08:53:24;;;;;;;;;;;16.00;52.00;;;;;;4902190;29;19935;-86
2021/03/07 08:55:50;;;;;;;;;;;16.00;51.90;;;;;;4888216;29;19931;-86
2021/03/07 08:58:18;;;;;;;;;;;16.00;51.80;;;;;;4862470;29;19934;-86
2021/03/07 09:00:46;;;;;;;;;;;16.00;51.80;;;;;;4917126;29;19949;-86
2021/03/07 09:03:13;;;;;;;;;;;16.00;51.80;;;;;;4899939;29;19916;-87
2021/03/07 09:05:39;;;;;;;;;;;16.00;51.90;;;;;;4907840;29;19931;-87
2021/03/07 09:08:06;;;;;;;;;;;16.00;51.90;;;;;;4901932;29;19934;-95
2021/03/07 09:10:43;;;;;;;;;;;16.00;51.80;;;;;;4909552;29;20306;-90
2021/03/07 09:13:19;;;;;;;;;;;16.10;51.80;;;;;;4899868;29;19986;-89
2021/03/07 09:15:55;;;;;;;;;;;16.00;51.80;;;;;;4898874;29;20609;-88
2021/03/07 09:18:22;;;;;;;;;;;16.00;51.90;;;;;;4916182;29;19935;-88
2021/03/07 09:20:56;;;;;;;;;;;16.00;51.90;;;;;;4903248;29;20451;-88
2021/03/07 09:23:26;;;;;;;;;;;16.00;52.00;;;;;;4897183;29;20613;-88
2021/03/07 09:25:52;;;;;;;;;;;16.10;52.00;;;;;;4885030;29;19931;-89
2021/03/07 09:28:45;;;;;;;;;;;16.10;52.00;;;;;;4894611;29;19994;-88
2021/03/07 09:31:12;;;;;;;;;;;16.10;52.00;;;;;;4886012;29;20575;-88
2021/03/07 09:33:46;;;;;;;;;;;16.10;52.00;;;;;;4907284;29;20251;-90
2021/03/07 09:36:12;;;;;;;;;;;16.10;52.00;;;;;;4898497;29;19931;-92
2021/03/07 09:38:45;;;;;;;;;;;16.10;52.00;;;;;;4908249;29;21278;-92
2021/03/07 09:41:13;;;;;;;;;;;16.10;51.90;;;;;;4905228;29;19949;-88
2021/03/07 09:43:42;;;;;;;;;;;16.10;52.00;;;;;;4906357;29;19931;-90
2021/03/07 09:46:09;;;;;;;;;;;16.10;52.00;;;;;;4902892;29;19931;-87
2021/03/07 09:48:36;;;;;;;;;;;16.10;52.00;;;;;;4904383;29;20129;-89
2021/03/07 09:51:03;;;;;;;;;;;16.20;52.00;;;;;;4900069;29;19966;-89
2021/03/07 09:53:31;;;;;;;;;;;16.10;51.90;;;;;;4902811;29;20022;-89
2021/03/07 09:55:58;;;;;;;;;;;16.20;51.90;;;;;;4882728;29;19935;-91
2021/03/07 09:58:34;;;;;;;;;;;16.10;51.90;;;;;;4907589;29;19931;-94
2021/03/07 10:01:02;;;;;;;;;;;16.10;51.80;;;;;;4904999;29;19933;-92
2021/03/07 10:03:30;;;;;;;;;;;16.10;51.80;;;;;;4907253;29;19945;-93
2021/03/07 10:06:04;;;;;;;;;;;16.20;51.90;;;;;;4899770;29;19927;-87
2021/03/07 10:08:34;;;;;;;;;;;16.20;51.90;;;;;;4904547;29;19935;-86
2021/03/07 10:11:19;;;;;;;;;;;16.20;51.90;;;;;;4902248;29;19941;-87
2021/03/07 10:13:55;;;;;;;;;;;16.20;51.90;;;;;;4887227;29;19955;-87
2021/03/07 10:16:25;;;;;;;;;;;16.20;52.40;;;;;;4901768;29;19935;-86
2021/03/07 10:19:06;;;;;;;;;;;16.20;51.80;;;;;;4907105;29;19939;-88
2021/03/07 10:21:33;;;;;;;;;;;16.20;52.10;;;;;;4905365;29;19927;-89
2021/03/07 10:24:09;;;;;;;;;;;16.40;52.10;;;;;;4910459;29;20044;-86
2021/03/07 10:26:39;;;;;;;;;;;16.40;51.60;;;;;;4904130;29;19935;-88
2021/03/07 10:29:18;;;;;;;;;;;16.60;51.70;;;;;;4912233;29;20600;-96
2021/03/07 10:32:03;;;;;;;;;;;16.60;51.50;;;;;;4888597;29;21913;-94
2021/03/07 10:34:32;;;;;;;;;;;16.70;51.30;;;;;;4923894;29;19962;-87
2021/03/07 10:37:01;;;;;;;;;;;16.80;51.00;;;;;;4905413;29;20026;-89
2021/03/07 10:39:27;;;;;;;;;;;16.90;50.90;;;;;;4911300;29;19942;-88
2021/03/07 10:42:07;;;;;;;;;;;16.90;50.80;;;;;;4906267;29;19923;-89
2021/03/07 10:44:34;;;;;;;;;;;16.90;50.50;;;;;;4912637;29;20295;-90
2021/03/07 10:47:15;;;;;;;;;;;17.00;50.30;;;;;;4910135;29;20348;-92
2021/03/07 10:49:43;;;;;;;;;;;17.10;50.20;;;;;;4910024;29;20627;-90
2021/03/07 10:52:10;;;;;;;;;;;17.10;50.00;;;;;;4909444;29;20018;-87
2021/03/07 10:57:24;;;;;;;;;;;17.20;49.30;;;;;;4941208;28;20017;-90
2021/03/07 10:59:53;;;;;;;;;;;17.10;49.40;;;;;;4946667;28;19935;-95
2021/03/07 11:02:20;;;;;;;;;;;17.10;49.40;;;;;;4949850;28;19941;-92
2021/03/07 11:04:46;;;;;;;;;;;17.10;49.40;;;;;;4953046;28;19926;-94
2021/03/07 11:07:13;;;;;;;;;;;17.00;49.40;;;;;;4945488;28;19953;-92
2021/03/07 11:09:40;;;;;;;;;;;17.00;49.20;;;;;;4946873;28;19934;-93
2021/03/07 11:12:08;;;;;;;;;;;17.10;49.10;;;;;;4951474;28;19927;-90
2021/03/07 11:14:34;;;;;;;;;;;17.10;48.80;;;;;;4947354;28;19927;-94
2021/03/07 11:17:01;;;;;;;;;;;17.10;49.00;;;;;;4953746;28;19935;-91
2021/03/07 11:19:27;;;;;;;;;;;17.00;48.80;;;;;;4945137;28;19927;-93
2021/03/07 11:21:54;;;;;;;;;;;17.00;48.80;;;;;;4939104;28;19941;-90
2021/03/07 11:24:20;;;;;;;;;;;17.00;48.80;;;;;;4942078;28;19941;-92
2021/03/07 11:26:46;;;;;;;;;;;17.00;48.80;;;;;;4947179;28;19930;-92
2021/03/07 11:29:13;;;;;;;;;;;17.00;49.20;;;;;;4945063;28;19926;-91
2021/03/07 11:31:39;;;;;;;;;;;17.00;48.60;;;;;;4939666;28;19934;-92
2021/03/07 11:34:06;;;;;;;;;;;17.00;48.70;;;;;;4927456;28;20122;-93
2021/03/07 11:36:32;;;;;;;;;;;17.00;49.50;;;;;;4949029;28;20582;-84
2021/03/07 11:38:58;;;;;;;;;;;17.00;49.70;;;;;;4936250;28;19930;-87
2021/03/07 11:41:25;;;;;;;;;;;17.00;49.50;;;;;;4945471;28;19953;-84
2021/03/07 11:43:51;;;;;;;;;;;17.10;50.20;;;;;;4945435;28;19926;-85
2021/03/07 11:46:17;;;;;;;;;;;17.10;50.30;;;;;;4941218;28;20347;-90
2021/03/07 11:48:43;;;;;;;;;;;17.10;50.10;;;;;;4934617;28;19935;-88
2021/03/07 11:51:10;;;;;;;;;;;17.10;50.00;;;;;;4945430;28;19935;-90
2021/03/07 11:53:36;;;;;;;;;;;17.10;50.60;;;;;;4944215;29;21461;-89
2021/03/07 11:56:03;;;;;;;;;;;17.00;50.30;;;;;;4942740;28;19934;-89
2021/03/07 11:58:29;;;;;;;;;;;17.10;49.80;;;;;;4947242;28;19934;-88
2021/03/07 12:00:55;;;;;;;;;;;17.10;49.80;;;;;;4940731;28;20227;-88
2021/03/07 12:03:22;;;;;;;;;;;17.00;49.60;;;;;;4943684;28;20395;-86
2021/03/07 12:05:48;;;;;;;;;;;17.00;49.60;;;;;;4941829;28;19934;-87
2021/03/07 12:08:15;;;;;;;;;;;17.00;49.60;;;;;;4940750;28;20331;-88
2021/03/07 12:10:41;;;;;;;;;;;17.00;49.50;;;;;;4940791;28;19938;-87
2021/03/07 12:13:07;;;;;;;;;;;17.00;49.40;;;;;;4943680;28;20009;-88
2021/03/07 12:15:34;;;;;;;;;;;17.10;49.40;;;;;;4943573;28;19930;-88
2021/03/07 12:18:00;;;;;;;;;;;17.10;49.40;;;;;;4941756;28;19938;-90
2021/03/07 12:20:26;;;;;;;;;;;17.00;49.00;;;;;;4936555;28;19935;-85
2021/03/07 12:22:53;;;;;;;;;;;17.00;49.10;;;;;;4925119;29;19934;-86
2021/03/07 12:25:19;;;;;;;;;;;17.00;49.20;;;;;;4943056;28;19934;-87
2021/03/07 12:27:45;;;;;;;;;;;17.00;49.20;;;;;;4939530;28;19977;-87
2021/03/07 12:30:12;;;;;;;;;;;17.00;49.00;;;;;;4943055;28;19941;-86
2021/03/07 12:32:38;;;;;;;;;;;17.10;48.90;;;;;;4939764;28;19946;-87
2021/03/07 12:35:05;;;;;;;;;;;17.00;48.60;;;;;;4939538;28;19977;-90
2021/03/07 12:37:32;;;;;;;;;;;17.00;48.50;;;;;;4933530;28;19934;-87
2021/03/07 12:39:58;;;;;;;;;;;17.00;48.80;;;;;;4940137;28;20306;-87
2021/03/07 12:42:24;;;;;;;;;;;17.00;48.60;;;;;;4921106;28;19933;-89
2021/03/07 12:44:53;;;;;;;;;;;17.00;48.70;;;;;;4940770;28;19926;-87
2021/03/07 12:47:20;;;;;;;;;;;17.00;48.70;;;;;;4934919;28;19930;-87
2021/03/07 12:49:46;;;;;;;;;;;17.00;48.60;;;;;;4936325;28;19958;-86
2021/03/07 12:52:13;;;;;;;;;;;17.00;48.30;;;;;;4933053;28;19931;-89
2021/03/07 12:54:39;;;;;;;;;;;17.00;48.60;;;;;;4931201;28;19931;-86
2021/03/07 12:57:05;;;;;;;;;;;17.00;48.50;;;;;;4934576;28;22238;-87
2021/03/07 12:59:32;;;;;;;;;;;17.00;48.50;;;;;;4945692;28;19935;-88
2021/03/07 13:01:58;;;;;;;;;;;17.00;48.20;;;;;;4958373;28;19938;-87
2021/03/07 13:04:25;;;;;;;;;;;17.00;48.10;;;;;;4942372;28;20021;-86
2021/03/07 13:06:51;;;;;;;;;;;17.00;48.20;;;;;;4941704;28;20291;-86
2021/03/07 13:09:17;;;;;;;;;;;17.00;48.30;;;;;;4940018;28;19930;-86
2021/03/07 13:11:46;;;;;;;;;;;17.00;48.20;;;;;;4941370;28;19930;-87
2021/03/07 13:14:13;;;;;;;;;;;17.00;48.00;;;;;;4931586;28;19935;-86
2021/03/07 13:16:40;;;;;;;;;;;17.00;47.80;;;;;;4960968;28;20567;-85
2021/03/07 13:19:10;;;;;;;;;;;17.00;47.90;;;;;;4936817;28;21635;-91
2021/03/07 13:21:36;;;;;;;;;;;17.00;48.00;;;;;;4946468;28;20515;-92
2021/03/07 13:24:03;;;;;;;;;;;17.00;48.00;;;;;;4934964;28;20006;-87
2021/03/07 13:26:29;;;;;;;;;;;17.00;48.60;;;;;;4942459;28;20029;-91
2021/03/07 13:28:56;;;;;;;;;;;17.10;48.50;;;;;;4940076;28;20037;-87
2021/03/07 13:31:22;;;;;;;;;;;17.10;48.60;;;;;;4942669;28;19953;-87
2021/03/07 13:33:49;;;;;;;;;;;17.10;48.60;;;;;;4957053;28;20323;-86
2021/03/07 13:36:15;;;;;;;;;;;17.10;48.50;;;;;;4940556;28;20073;-87
2021/03/07 13:38:42;;;;;;;;;;;17.10;48.50;;;;;;4923145;28;19922;-88
2021/03/07 13:41:08;;;;;;;;;;;17.10;48.40;;;;;;4944656;28;19927;-89
2021/03/07 13:43:35;;;;;;;;;;;17.10;48.50;;;;;;4938881;28;20025;-88
2021/03/07 13:46:02;;;;;;;;;;;17.10;48.60;;;;;;4939052;28;19994;-87
2021/03/07 13:48:28;;;;;;;;;;;17.20;48.70;;;;;;4945789;28;20029;-88
2021/03/07 13:51:11;;;;;;;;;;;17.20;48.80;;;;;;4937050;28;20171;-88
2021/03/07 13:53:38;;;;;;;;;;;17.20;48.80;;;;;;4945824;28;19933;-87
2021/03/07 13:56:05;;;;;;;;;;;17.20;48.90;;;;;;4937602;28;20704;-88
2021/03/07 13:58:32;;;;;;;;;;;17.20;48.90;;;;;;4940677;28;20650;-89
2021/03/07 14:00:59;;;;;;;;;;;17.20;49.00;;;;;;4939960;28;19938;-89
2021/03/07 14:03:25;;;;;;;;;;;17.20;49.00;;;;;;4943344;28;19925;-89
2021/03/07 14:05:52;;;;;;;;;;;17.20;49.10;;;;;;4939676;28;20305;-88
2021/03/07 14:08:18;;;;;;;;;;;17.30;49.70;;;;;;4942331;28;20025;-88
2021/03/07 14:10:45;;;;;;;;;;;17.30;49.80;;;;;;4933850;28;19926;-88
2021/03/07 14:13:11;;;;;;;;;;;17.40;50.20;;;;;;4942573;28;20030;-90
2021/03/07 14:15:37;;;;;;;;;;;17.40;50.30;;;;;;4936233;28;20265;-91
2021/03/07 14:18:11;;;;;;;;;;;17.40;50.40;;;;;;4944367;28;19931;-88
2021/03/07 14:20:38;;;;;;;;;;;17.50;50.30;;;;;;4926180;29;19937;-87
2021/03/07 14:23:13;;;;;;;;;;;17.50;50.80;;;;;;4942001;28;20205;-85
2021/03/07 14:25:40;;;;;;;;;;;17.60;51.10;;;;;;4939840;28;20435;-88
2021/03/07 14:28:06;;;;;;;;;;;17.60;51.50;;;;;;4939932;28;19915;-90